CCAYT SACO-SGAS
Flight info
| Callsign | CCAYT |
|---|---|
| Flight time | 1h 19m |
| Altitude | 41000 |
| Route | TREJ1G TREJO UL531 SIS UZ124 ARPAS DCT |
| Aircraft | C25C/M-SDE2E3FGHRWXY/LB1 |
Departure
| Time | 2026-04-26 20:35 |
|---|---|
| Airport | Ingeniero Aeronáutico Ambrosio L.V. Taravella International Airport (SACO) |
Arrival
| Time | 2026-04-26 21:54 |
|---|---|
| Airport | Silvio Pettirossi International Airport (SGAS) |
| Time | Latitude | Longitude | Altitude | Speed | Heading |
|---|---|---|---|---|---|
| 2026-04-26 20:24 | -31.31226 | -64.21081 | 1561 ft | 0 kts | 333° |
| 2026-04-26 20:27 | -31.31243 | -64.21071 | 1561 ft | 3 kts | 333° |
| 2026-04-26 20:27 | -31.31254 | -64.21064 | 1560 ft | 3 kts | 333° |
| 2026-04-26 20:27 | -31.31275 | -64.21051 | 1560 ft | 1 kts | 332° |
| 2026-04-26 20:30 | -31.31272 | -64.21055 | 1560 ft | 2 kts | 302° |
| 2026-04-26 20:31 | -31.31305 | -64.21089 | 1559 ft | 12 kts | 205° |
| 2026-04-26 20:31 | -31.31393 | -64.21098 | 1557 ft | 14 kts | 175° |
| 2026-04-26 20:31 | -31.31466 | -64.21037 | 1555 ft | 14 kts | 89° |
| 2026-04-26 20:31 | -31.31464 | -64.20925 | 1553 ft | 15 kts | 84° |
| 2026-04-26 20:32 | -31.31383 | -64.20832 | 1553 ft | 21 kts | 13° |
| 2026-04-26 20:32 | -31.31206 | -64.20831 | 1557 ft | 30 kts | 358° |
| 2026-04-26 20:32 | -31.31006 | -64.20835 | 1562 ft | 28 kts | 359° |
| 2026-04-26 20:32 | -31.30817 | -64.20838 | 1568 ft | 27 kts | 0° |
| 2026-04-26 20:33 | -31.30611 | -64.20838 | 1575 ft | 31 kts | 359° |
| 2026-04-26 20:33 | -31.30393 | -64.20844 | 1583 ft | 33 kts | 358° |
| 2026-04-26 20:33 | -31.30157 | -64.20847 | 1591 ft | 35 kts | 360° |
| 2026-04-26 20:33 | -31.29925 | -64.20852 | 1597 ft | 32 kts | 359° |
| 2026-04-26 20:34 | -31.29709 | -64.20861 | 1611 ft | 28 kts | 352° |
| 2026-04-26 20:34 | -31.29609 | -64.20868 | 1612 ft | 3 kts | 76° |
| 2026-04-26 20:34 | -31.29738 | -64.20854 | 1602 ft | 53 kts | 179° |
| 2026-04-26 20:34 | -31.30471 | -64.20846 | 1663 ft | 145 kts | 180° |
| 2026-04-26 20:35 | -31.31584 | -64.20824 | 2347 ft | 169 kts | 177° |
| 2026-04-26 20:35 | -31.32707 | -64.20313 | 3274 ft | 184 kts | 148° |
| 2026-04-26 20:35 | -31.33604 | -64.19117 | 4176 ft | 214 kts | 121° |
| 2026-04-26 20:35 | -31.34297 | -64.17459 | 5121 ft | 235 kts | 121° |
| 2026-04-26 20:36 | -31.35040 | -64.15700 | 6041 ft | 253 kts | 120° |
| 2026-04-26 20:36 | -31.35875 | -64.13741 | 6730 ft | 279 kts | 120° |
| 2026-04-26 20:36 | -31.36756 | -64.11689 | 7724 ft | 287 kts | 120° |
| 2026-04-26 20:36 | -31.37671 | -64.09559 | 8751 ft | 296 kts | 121° |
| 2026-04-26 20:37 | -31.38603 | -64.07385 | 9728 ft | 306 kts | 121° |
| 2026-04-26 20:37 | -31.39500 | -64.05031 | 10409 ft | 331 kts | 109° |
| 2026-04-26 20:37 | -31.39666 | -64.02226 | 10719 ft | 363 kts | 91° |
| 2026-04-26 20:37 | -31.39592 | -63.99211 | 11458 ft | 371 kts | 89° |
| 2026-04-26 20:38 | -31.39498 | -63.96203 | 12255 ft | 377 kts | 90° |
| 2026-04-26 20:38 | -31.39468 | -63.93095 | 13001 ft | 384 kts | 91° |
| 2026-04-26 20:38 | -31.39317 | -63.89936 | 13749 ft | 391 kts | 78° |
| 2026-04-26 20:38 | -31.38182 | -63.87077 | 14467 ft | 391 kts | 52° |
| 2026-04-26 20:39 | -31.36316 | -63.84837 | 15145 ft | 388 kts | 32° |
| 2026-04-26 20:39 | -31.34102 | -63.82984 | 15832 ft | 392 kts | 31° |
| 2026-04-26 20:39 | -31.31887 | -63.81123 | 16499 ft | 397 kts | 32° |
| 2026-04-26 20:39 | -31.29652 | -63.79143 | 17180 ft | 402 kts | 33° |
| 2026-04-26 20:40 | -31.27430 | -63.77158 | 17833 ft | 407 kts | 33° |
| 2026-04-26 20:40 | -31.25153 | -63.75165 | 18475 ft | 412 kts | 32° |
| 2026-04-26 20:40 | -31.22847 | -63.73168 | 19080 ft | 415 kts | 32° |
| 2026-04-26 20:40 | -31.20505 | -63.71118 | 19703 ft | 419 kts | 32° |
| 2026-04-26 20:41 | -31.18174 | -63.69076 | 20331 ft | 423 kts | 32° |
| 2026-04-26 20:41 | -31.15819 | -63.67014 | 20958 ft | 426 kts | 32° |
| 2026-04-26 20:41 | -31.13414 | -63.64921 | 21581 ft | 431 kts | 32° |
| 2026-04-26 20:41 | -31.11016 | -63.62830 | 22201 ft | 435 kts | 32° |
| 2026-04-26 20:42 | -31.08595 | -63.60717 | 22807 ft | 439 kts | 32° |
| 2026-04-26 20:42 | -31.06130 | -63.58570 | 23399 ft | 443 kts | 32° |
| 2026-04-26 20:42 | -31.03633 | -63.56395 | 23940 ft | 447 kts | 32° |
| 2026-04-26 20:42 | -31.01146 | -63.54234 | 24424 ft | 450 kts | 31° |
| 2026-04-26 20:43 | -30.98635 | -63.52048 | 24914 ft | 454 kts | 31° |
| 2026-04-26 20:43 | -30.96083 | -63.49834 | 25379 ft | 457 kts | 31° |
| 2026-04-26 20:43 | -30.93543 | -63.47625 | 25797 ft | 460 kts | 31° |
| 2026-04-26 20:43 | -30.90951 | -63.45378 | 26203 ft | 464 kts | 31° |
| 2026-04-26 20:44 | -30.88365 | -63.43135 | 26575 ft | 467 kts | 31° |
| 2026-04-26 20:44 | -30.85766 | -63.40884 | 26935 ft | 470 kts | 31° |
| 2026-04-26 20:44 | -30.83143 | -63.38613 | 27283 ft | 472 kts | 30° |
| 2026-04-26 20:44 | -30.80467 | -63.36296 | 27624 ft | 475 kts | 30° |
| 2026-04-26 20:45 | -30.77863 | -63.33909 | 27909 ft | 484 kts | 38° |
| 2026-04-26 20:45 | -30.75735 | -63.30821 | 28303 ft | 492 kts | 50° |
| 2026-04-26 20:45 | -30.73703 | -63.27629 | 28758 ft | 490 kts | 49° |
| 2026-04-26 20:45 | -30.71685 | -63.24433 | 29162 ft | 491 kts | 49° |
| 2026-04-26 20:46 | -30.69676 | -63.21215 | 29594 ft | 491 kts | 49° |
| 2026-04-26 20:46 | -30.67675 | -63.18020 | 30017 ft | 491 kts | 49° |
| 2026-04-26 20:46 | -30.65665 | -63.14850 | 30390 ft | 491 kts | 48° |
| 2026-04-26 20:46 | -30.63621 | -63.11617 | 30741 ft | 491 kts | 48° |
| 2026-04-26 20:47 | -30.61623 | -63.08450 | 31080 ft | 492 kts | 48° |
| 2026-04-26 20:47 | -30.60256 | -63.06277 | 31313 ft | 492 kts | 47° |
| 2026-04-26 20:47 | -30.57557 | -63.02011 | 31768 ft | 492 kts | 47° |
| 2026-04-26 20:47 | -30.55537 | -62.98827 | 32105 ft | 493 kts | 47° |
| 2026-04-26 20:48 | -30.53512 | -62.95626 | 32444 ft | 493 kts | 47° |
| 2026-04-26 20:48 | -30.51482 | -62.92425 | 32772 ft | 494 kts | 46° |
| 2026-04-26 20:48 | -30.49436 | -62.89196 | 33097 ft | 495 kts | 46° |
| 2026-04-26 20:48 | -30.47404 | -62.86001 | 33414 ft | 496 kts | 46° |
| 2026-04-26 20:49 | -30.45339 | -62.82748 | 33735 ft | 496 kts | 45° |
| 2026-04-26 20:49 | -30.43304 | -62.79551 | 34041 ft | 497 kts | 45° |
| 2026-04-26 20:49 | -30.41232 | -62.76295 | 34306 ft | 498 kts | 45° |
| 2026-04-26 20:49 | -30.39177 | -62.73067 | 34566 ft | 499 kts | 45° |
| 2026-04-26 20:50 | -30.37115 | -62.69836 | 34832 ft | 499 kts | 45° |
| 2026-04-26 20:50 | -30.35053 | -62.66601 | 35098 ft | 499 kts | 45° |
| 2026-04-26 20:50 | -30.33009 | -62.63402 | 35360 ft | 500 kts | 45° |
| 2026-04-26 20:50 | -30.30941 | -62.60165 | 35622 ft | 500 kts | 44° |
| 2026-04-26 20:51 | -30.28874 | -62.56933 | 35883 ft | 500 kts | 44° |
| 2026-04-26 20:51 | -30.26811 | -62.53711 | 36140 ft | 500 kts | 44° |
| 2026-04-26 20:51 | -30.24736 | -62.50471 | 36387 ft | 501 kts | 44° |
| 2026-04-26 20:51 | -30.22649 | -62.47218 | 36631 ft | 501 kts | 44° |
| 2026-04-26 20:52 | -30.20574 | -62.43982 | 36881 ft | 501 kts | 44° |
| 2026-04-26 20:52 | -30.18506 | -62.40761 | 37123 ft | 501 kts | 44° |
| 2026-04-26 20:52 | -30.16432 | -62.37536 | 37374 ft | 501 kts | 43° |
| 2026-04-26 20:52 | -30.14350 | -62.34296 | 37608 ft | 501 kts | 43° |
| 2026-04-26 20:53 | -30.12278 | -62.31080 | 37846 ft | 501 kts | 43° |
| 2026-04-26 20:53 | -30.10203 | -62.27857 | 38093 ft | 501 kts | 43° |
| 2026-04-26 20:53 | -30.08095 | -62.24588 | 38345 ft | 501 kts | 43° |
| 2026-04-26 20:53 | -30.06019 | -62.21373 | 38578 ft | 501 kts | 43° |
| 2026-04-26 20:54 | -30.03947 | -62.18162 | 38803 ft | 501 kts | 43° |
| 2026-04-26 20:54 | -30.01870 | -62.14949 | 39009 ft | 500 kts | 43° |
| 2026-04-26 20:54 | -29.99788 | -62.11731 | 39220 ft | 500 kts | 43° |
| 2026-04-26 20:54 | -29.97706 | -62.08513 | 39431 ft | 499 kts | 43° |
| 2026-04-26 20:55 | -29.95645 | -62.05334 | 39652 ft | 498 kts | 43° |
| 2026-04-26 20:55 | -29.93567 | -62.02127 | 39875 ft | 498 kts | 43° |
| 2026-04-26 20:55 | -29.91497 | -61.98937 | 40102 ft | 497 kts | 43° |
| 2026-04-26 20:55 | -29.89424 | -61.95745 | 40335 ft | 496 kts | 43° |
| 2026-04-26 20:56 | -29.87321 | -61.92581 | 40563 ft | 491 kts | 39° |
| 2026-04-26 20:56 | -29.85023 | -61.89687 | 40791 ft | 484 kts | 35° |
| 2026-04-26 20:56 | -29.82710 | -61.86848 | 40960 ft | 486 kts | 35° |
| 2026-04-26 20:57 | -29.78074 | -61.81145 | 41026 ft | 495 kts | 35° |
| 2026-04-26 20:57 | -29.73328 | -61.75323 | 41035 ft | 503 kts | 36° |
| 2026-04-26 20:58 | -29.68510 | -61.69416 | 41040 ft | 509 kts | 36° |
| 2026-04-26 20:58 | -29.63738 | -61.63563 | 41029 ft | 497 kts | 35° |
| 2026-04-26 20:59 | -29.59022 | -61.57818 | 41024 ft | 493 kts | 35° |
| 2026-04-26 20:59 | -29.54334 | -61.52089 | 41023 ft | 491 kts | 35° |
| 2026-04-26 21:00 | -29.49648 | -61.46386 | 41016 ft | 488 kts | 35° |
| 2026-04-26 21:00 | -29.44996 | -61.40726 | 41016 ft | 487 kts | 34° |
| 2026-04-26 21:01 | -29.40361 | -61.35098 | 41013 ft | 485 kts | 34° |
| 2026-04-26 21:01 | -29.35725 | -61.29474 | 41009 ft | 484 kts | 34° |
| 2026-04-26 21:02 | -29.31114 | -61.23888 | 41006 ft | 483 kts | 34° |
| 2026-04-26 21:02 | -29.26493 | -61.18300 | 41003 ft | 482 kts | 34° |
| 2026-04-26 21:03 | -29.21889 | -61.12740 | 40998 ft | 481 kts | 34° |
| 2026-04-26 21:03 | -29.17277 | -61.07177 | 40996 ft | 481 kts | 34° |
| 2026-04-26 21:04 | -29.12677 | -61.01635 | 41000 ft | 480 kts | 34° |
| 2026-04-26 21:04 | -29.08080 | -60.96131 | 40989 ft | 478 kts | 33° |
| 2026-04-26 21:05 | -29.03443 | -60.90689 | 40994 ft | 478 kts | 33° |
| 2026-04-26 21:05 | -28.98833 | -60.85226 | 40986 ft | 478 kts | 33° |
| 2026-04-26 21:06 | -28.94192 | -60.79763 | 40983 ft | 477 kts | 33° |
| 2026-04-26 21:06 | -28.89603 | -60.74357 | 40972 ft | 477 kts | 33° |
| 2026-04-26 21:07 | -28.84985 | -60.68929 | 40973 ft | 476 kts | 33° |
| 2026-04-26 21:07 | -28.80373 | -60.63514 | 40972 ft | 476 kts | 33° |
| 2026-04-26 21:08 | -28.75749 | -60.58082 | 40966 ft | 477 kts | 34° |
| 2026-04-26 21:08 | -28.71172 | -60.52599 | 40970 ft | 477 kts | 34° |
| 2026-04-26 21:09 | -28.66572 | -60.47150 | 40969 ft | 476 kts | 34° |
| 2026-04-26 21:09 | -28.62002 | -60.41723 | 40966 ft | 476 kts | 34° |
| 2026-04-26 21:10 | -28.57422 | -60.36299 | 40965 ft | 475 kts | 34° |
| 2026-04-26 21:10 | -28.52857 | -60.30897 | 40960 ft | 475 kts | 34° |
| 2026-04-26 21:11 | -28.49039 | -60.26383 | 40958 ft | 474 kts | 34° |
| 2026-04-26 21:11 | -28.44456 | -60.20974 | 40959 ft | 473 kts | 34° |
| 2026-04-26 21:12 | -28.39147 | -60.14718 | 40962 ft | 473 kts | 34° |
| 2026-04-26 21:12 | -28.35329 | -60.10224 | 40959 ft | 472 kts | 34° |
| 2026-04-26 21:13 | -28.30781 | -60.04876 | 40959 ft | 472 kts | 34° |
| 2026-04-26 21:13 | -28.26221 | -59.99522 | 40955 ft | 471 kts | 34° |
| 2026-04-26 21:14 | -28.21675 | -59.94192 | 40954 ft | 470 kts | 33° |
| 2026-04-26 21:14 | -28.17111 | -59.88848 | 40956 ft | 470 kts | 34° |
| 2026-04-26 21:15 | -28.12584 | -59.83552 | 40954 ft | 470 kts | 33° |
| 2026-04-26 21:15 | -28.08031 | -59.78234 | 40954 ft | 469 kts | 33° |
| 2026-04-26 21:16 | -28.03467 | -59.72942 | 40954 ft | 468 kts | 33° |
| 2026-04-26 21:16 | -27.98917 | -59.67659 | 40955 ft | 468 kts | 33° |
| 2026-04-26 21:17 | -27.94369 | -59.62391 | 40953 ft | 468 kts | 33° |
| 2026-04-26 21:17 | -27.89843 | -59.57151 | 40948 ft | 467 kts | 33° |
| 2026-04-26 21:18 | -27.85303 | -59.51904 | 40949 ft | 467 kts | 33° |
| 2026-04-26 21:18 | -27.80755 | -59.46655 | 40948 ft | 466 kts | 33° |
| 2026-04-26 21:19 | -27.76198 | -59.41400 | 40951 ft | 466 kts | 33° |
| 2026-04-26 21:19 | -27.71680 | -59.36198 | 40941 ft | 465 kts | 33° |
| 2026-04-26 21:20 | -27.67164 | -59.31005 | 40950 ft | 465 kts | 33° |
| 2026-04-26 21:20 | -27.62634 | -59.25802 | 40940 ft | 465 kts | 33° |
| 2026-04-26 21:21 | -27.58100 | -59.20600 | 40933 ft | 464 kts | 33° |
| 2026-04-26 21:21 | -27.53555 | -59.15394 | 40930 ft | 464 kts | 33° |
| 2026-04-26 21:22 | -27.49033 | -59.10219 | 40928 ft | 463 kts | 33° |
| 2026-04-26 21:22 | -27.44367 | -59.05400 | 40927 ft | 448 kts | 24° |
| 2026-04-26 21:23 | -27.39197 | -59.01701 | 40929 ft | 436 kts | 17° |
| 2026-04-26 21:23 | -27.36605 | -58.99959 | 40929 ft | 437 kts | 18° |
| 2026-04-26 21:23 | -27.31402 | -58.96441 | 40935 ft | 436 kts | 18° |
| 2026-04-26 21:24 | -27.26184 | -58.92940 | 40935 ft | 435 kts | 18° |
| 2026-04-26 21:24 | -27.20999 | -58.89452 | 40939 ft | 435 kts | 18° |
| 2026-04-26 21:25 | -27.15805 | -58.85969 | 40940 ft | 434 kts | 18° |
| 2026-04-26 21:25 | -27.10623 | -58.82496 | 40940 ft | 433 kts | 18° |
| 2026-04-26 21:26 | -27.05444 | -58.79029 | 40943 ft | 436 kts | 18° |
| 2026-04-26 21:26 | -27.00214 | -58.75529 | 40939 ft | 439 kts | 18° |
| 2026-04-26 21:27 | -26.94947 | -58.71960 | 40941 ft | 441 kts | 19° |
| 2026-04-26 21:27 | -26.89677 | -58.68411 | 40942 ft | 443 kts | 19° |
| 2026-04-26 21:28 | -26.84401 | -58.64855 | 40935 ft | 444 kts | 19° |
| 2026-04-26 21:28 | -26.79127 | -58.61307 | 40938 ft | 444 kts | 19° |
| 2026-04-26 21:29 | -26.76466 | -58.59522 | 40709 ft | 450 kts | 19° |
| 2026-04-26 21:29 | -26.73717 | -58.57684 | 40120 ft | 459 kts | 19° |
| 2026-04-26 21:29 | -26.70978 | -58.55838 | 39523 ft | 462 kts | 20° |
| 2026-04-26 21:29 | -26.68213 | -58.53973 | 38911 ft | 464 kts | 19° |
| 2026-04-26 21:30 | -26.65458 | -58.52125 | 38255 ft | 465 kts | 19° |
| 2026-04-26 21:30 | -26.62706 | -58.50285 | 37643 ft | 464 kts | 19° |
| 2026-04-26 21:30 | -26.59916 | -58.48413 | 37027 ft | 463 kts | 20° |
| 2026-04-26 21:30 | -26.57166 | -58.46572 | 36420 ft | 463 kts | 20° |
| 2026-04-26 21:31 | -26.54382 | -58.44708 | 35803 ft | 463 kts | 20° |
| 2026-04-26 21:31 | -26.51614 | -58.42860 | 35193 ft | 465 kts | 20° |
| 2026-04-26 21:31 | -26.48837 | -58.41004 | 34580 ft | 467 kts | 20° |
| 2026-04-26 21:31 | -26.46038 | -58.39134 | 33963 ft | 469 kts | 20° |
| 2026-04-26 21:32 | -26.43257 | -58.37274 | 33309 ft | 469 kts | 20° |
| 2026-04-26 21:32 | -26.40454 | -58.35403 | 32691 ft | 468 kts | 20° |
| 2026-04-26 21:32 | -26.37640 | -58.33526 | 32064 ft | 467 kts | 20° |
| 2026-04-26 21:32 | -26.34855 | -58.31671 | 31449 ft | 467 kts | 20° |
| 2026-04-26 21:33 | -26.32078 | -58.29824 | 30837 ft | 468 kts | 21° |
| 2026-04-26 21:33 | -26.29284 | -58.27962 | 30220 ft | 469 kts | 21° |
| 2026-04-26 21:33 | -26.26464 | -58.26085 | 29553 ft | 469 kts | 21° |
| 2026-04-26 21:33 | -26.23681 | -58.24232 | 28936 ft | 468 kts | 21° |
| 2026-04-26 21:34 | -26.20856 | -58.22349 | 28308 ft | 472 kts | 22° |
| 2026-04-26 21:34 | -26.18114 | -58.20322 | 27689 ft | 476 kts | 25° |
| 2026-04-26 21:34 | -26.15346 | -58.18289 | 27063 ft | 477 kts | 24° |
| 2026-04-26 21:34 | -26.12571 | -58.16276 | 26434 ft | 478 kts | 24° |
| 2026-04-26 21:35 | -26.09787 | -58.14242 | 25801 ft | 479 kts | 25° |
| 2026-04-26 21:35 | -26.07015 | -58.12205 | 25173 ft | 479 kts | 25° |
| 2026-04-26 21:35 | -26.04241 | -58.10168 | 24543 ft | 472 kts | 25° |
| 2026-04-26 21:35 | -26.01525 | -58.08176 | 23925 ft | 455 kts | 25° |
| 2026-04-26 21:36 | -25.98945 | -58.06294 | 23309 ft | 442 kts | 25° |
| 2026-04-26 21:36 | -25.97216 | -58.05037 | 22890 ft | 433 kts | 25° |
| 2026-04-26 21:36 | -25.93928 | -58.02639 | 22145 ft | 419 kts | 25° |
| 2026-04-26 21:36 | -25.91532 | -58.00889 | 21601 ft | 410 kts | 25° |
| 2026-04-26 21:37 | -25.89169 | -57.99170 | 21063 ft | 402 kts | 25° |
| 2026-04-26 21:37 | -25.86841 | -57.97471 | 20533 ft | 395 kts | 26° |
| 2026-04-26 21:37 | -25.84565 | -57.95818 | 20020 ft | 392 kts | 26° |
| 2026-04-26 21:37 | -25.82257 | -57.94144 | 19494 ft | 400 kts | 26° |
| 2026-04-26 21:38 | -25.79915 | -57.92443 | 18968 ft | 408 kts | 27° |
| 2026-04-26 21:38 | -25.77537 | -57.90708 | 18425 ft | 411 kts | 27° |
| 2026-04-26 21:38 | -25.75140 | -57.88958 | 17841 ft | 405 kts | 27° |
| 2026-04-26 21:38 | -25.72768 | -57.87374 | 17299 ft | 392 kts | 19° |
| 2026-04-26 21:39 | -25.70254 | -57.86382 | 16828 ft | 382 kts | 14° |
| 2026-04-26 21:39 | -25.67788 | -57.85380 | 16363 ft | 377 kts | 14° |
| 2026-04-26 21:39 | -25.65323 | -57.84389 | 15874 ft | 375 kts | 14° |
| 2026-04-26 21:39 | -25.62850 | -57.83406 | 15374 ft | 375 kts | 14° |
| 2026-04-26 21:40 | -25.60401 | -57.82436 | 14879 ft | 375 kts | 15° |
| 2026-04-26 21:40 | -25.57957 | -57.81459 | 14387 ft | 375 kts | 15° |
| 2026-04-26 21:40 | -25.55510 | -57.80482 | 13899 ft | 374 kts | 15° |
| 2026-04-26 21:40 | -25.53063 | -57.79508 | 13373 ft | 374 kts | 15° |
| 2026-04-26 21:41 | -25.50626 | -57.78537 | 12875 ft | 372 kts | 15° |
| 2026-04-26 21:41 | -25.48165 | -57.77560 | 12377 ft | 371 kts | 15° |
| 2026-04-26 21:41 | -25.45738 | -57.76591 | 11882 ft | 371 kts | 16° |
| 2026-04-26 21:41 | -25.43316 | -57.75631 | 11399 ft | 371 kts | 16° |
| 2026-04-26 21:42 | -25.40891 | -57.74665 | 10907 ft | 370 kts | 16° |
| 2026-04-26 21:42 | -25.38554 | -57.73733 | 10436 ft | 343 kts | 16° |
| 2026-04-26 21:42 | -25.36403 | -57.72870 | 10001 ft | 312 kts | 15° |
| 2026-04-26 21:42 | -25.34434 | -57.72093 | 9624 ft | 294 kts | 15° |
| 2026-04-26 21:43 | -25.32511 | -57.71340 | 9252 ft | 297 kts | 15° |
| 2026-04-26 21:43 | -25.30529 | -57.70555 | 8849 ft | 301 kts | 17° |
| 2026-04-26 21:43 | -25.28662 | -57.69815 | 8472 ft | 302 kts | 17° |
| 2026-04-26 21:43 | -25.26674 | -57.69021 | 8072 ft | 301 kts | 17° |
| 2026-04-26 21:44 | -25.24703 | -57.68244 | 7678 ft | 300 kts | 17° |
| 2026-04-26 21:44 | -25.22727 | -57.67457 | 7295 ft | 299 kts | 18° |
| 2026-04-26 21:44 | -25.20781 | -57.66691 | 6914 ft | 297 kts | 18° |
| 2026-04-26 21:44 | -25.18853 | -57.65923 | 6536 ft | 295 kts | 19° |
| 2026-04-26 21:45 | -25.16908 | -57.65158 | 6141 ft | 293 kts | 19° |
| 2026-04-26 21:45 | -25.15004 | -57.64400 | 5753 ft | 291 kts | 19° |
| 2026-04-26 21:45 | -25.13089 | -57.63646 | 5370 ft | 289 kts | 20° |
| 2026-04-26 21:45 | -25.11208 | -57.62900 | 4994 ft | 287 kts | 19° |
| 2026-04-26 21:46 | -25.09337 | -57.62162 | 4621 ft | 286 kts | 20° |
| 2026-04-26 21:46 | -25.07479 | -57.61427 | 4239 ft | 285 kts | 20° |
| 2026-04-26 21:46 | -25.05627 | -57.60695 | 3866 ft | 283 kts | 20° |
| 2026-04-26 21:46 | -25.03828 | -57.59827 | 3486 ft | 272 kts | 36° |
| 2026-04-26 21:47 | -25.02625 | -57.58319 | 3140 ft | 261 kts | 60° |
| 2026-04-26 21:47 | -25.02101 | -57.56480 | 3026 ft | 245 kts | 86° |
| 2026-04-26 21:47 | -25.02251 | -57.54689 | 2994 ft | 232 kts | 110° |
| 2026-04-26 21:47 | -25.02955 | -57.53139 | 2995 ft | 223 kts | 125° |
| 2026-04-26 21:48 | -25.03784 | -57.51700 | 2995 ft | 217 kts | 125° |
| 2026-04-26 21:48 | -25.04592 | -57.50323 | 2991 ft | 213 kts | 125° |
| 2026-04-26 21:48 | -25.05399 | -57.48976 | 2953 ft | 211 kts | 131° |
| 2026-04-26 21:48 | -25.06609 | -57.48108 | 2831 ft | 208 kts | 163° |
| 2026-04-26 21:49 | -25.07991 | -57.48024 | 2686 ft | 195 kts | 191° |
| 2026-04-26 21:49 | -25.09258 | -57.48328 | 2554 ft | 176 kts | 191° |
| 2026-04-26 21:49 | -25.10404 | -57.48611 | 2399 ft | 160 kts | 192° |
| 2026-04-26 21:49 | -25.11485 | -57.48875 | 2257 ft | 158 kts | 192° |
| 2026-04-26 21:50 | -25.12548 | -57.49134 | 2116 ft | 157 kts | 192° |
| 2026-04-26 21:50 | -25.13255 | -57.49306 | 2022 ft | 156 kts | 192° |
| 2026-04-26 21:50 | -25.14629 | -57.49636 | 1832 ft | 142 kts | 192° |
| 2026-04-26 21:50 | -25.15504 | -57.49836 | 1670 ft | 117 kts | 192° |
| 2026-04-26 21:51 | -25.16264 | -57.50024 | 1510 ft | 107 kts | 192° |
| 2026-04-26 21:51 | -25.16959 | -57.50196 | 1374 ft | 100 kts | 192° |
| 2026-04-26 21:51 | -25.17630 | -57.50359 | 1248 ft | 99 kts | 192° |
| 2026-04-26 21:51 | -25.18081 | -57.50470 | 1163 ft | 99 kts | 192° |
| 2026-04-26 21:52 | -25.18754 | -57.50633 | 1050 ft | 99 kts | 193° |
| 2026-04-26 21:52 | -25.19685 | -57.50863 | 883 ft | 105 kts | 193° |
| 2026-04-26 21:52 | -25.20401 | -57.51036 | 760 ft | 107 kts | 192° |
| 2026-04-26 21:52 | -25.20898 | -57.51156 | 664 ft | 111 kts | 193° |
| 2026-04-26 21:53 | -25.21905 | -57.51410 | 436 ft | 112 kts | 193° |
| 2026-04-26 21:53 | -25.22397 | -57.51529 | 315 ft | 103 kts | 192° |
| 2026-04-26 21:53 | -25.23028 | -57.51680 | 259 ft | 79 kts | 192° |
| 2026-04-26 21:53 | -25.23469 | -57.51789 | 264 ft | 54 kts | 192° |
| 2026-04-26 21:54 | -25.23766 | -57.51861 | 267 ft | 37 kts | 192° |
| 2026-04-26 21:54 | -25.23990 | -57.51916 | 273 ft | 30 kts | 193° |
| 2026-04-26 21:54 | -25.24179 | -57.51964 | 277 ft | 20 kts | 192° |
| 2026-04-26 21:54 | -25.24260 | -57.51933 | 278 ft | 11 kts | 91° |
| 2026-04-26 21:55 | -25.24272 | -57.51870 | 277 ft | 8 kts | 101° |
| 2026-04-26 21:55 | -25.24285 | -57.51806 | 276 ft | 8 kts | 103° |
| 2026-04-26 21:55 | -25.24296 | -57.51752 | 276 ft | 7 kts | 103° |
| 2026-04-26 21:55 | -25.24308 | -57.51697 | 276 ft | 8 kts | 99° |
| 2026-04-26 21:56 | -25.24272 | -57.51653 | 275 ft | 10 kts | 12° |
| 2026-04-26 21:56 | -25.24202 | -57.51639 | 274 ft | 10 kts | 10° |
| 2026-04-26 21:56 | -25.24150 | -57.51625 | 274 ft | 7 kts | 15° |
| 2026-04-26 21:56 | -25.24107 | -57.51610 | 284 ft | 1 kts | 52° |
| 2026-04-26 21:57 | -25.24105 | -57.51576 | 277 ft | 7 kts | 108° |
| 2026-04-26 21:57 | -25.24136 | -57.51543 | 273 ft | 4 kts | 147° |
| 2026-04-26 21:57 | -25.24143 | -57.51539 | 273 ft | 0 kts | 148° |
| 2026-04-26 21:57 | -25.24153 | -57.51537 | 273 ft | 3 kts | 145° |
| 2026-04-26 21:58 | -25.24131 | -57.51494 | 273 ft | 7 kts | 344° |
| 2026-04-26 21:58 | -25.24125 | -57.51523 | 273 ft | 0 kts | 202° |
| 2026-04-26 21:58 | -25.24128 | -57.51523 | 273 ft | 2 kts | 167° |
| 2026-04-26 21:58 | -25.24130 | -57.51522 | 273 ft | 0 kts | 167° |
| 2026-04-26 21:59 | -25.24132 | -57.51522 | 273 ft | 0 kts | 168° |